Pagrindinis puslapis
METAR-TAF:

METAR-TAF

Oro uostai :

Thule, Grenlandija

platuma: 76-32N, ilguma: 068-42W, Aukštis: 77 m

Dabartinis oras

Ataskaita buvo paskelbta 29 minutes, ne 15:56 UTC
Ramus vėjas
Temperatūra 0°C
Drėgmė 47%
Slėgis 1004 hPa
Matomumas 10 km arba daugiau
Giedras dangus

METAR: BGTL 201556Z AUTO 00000KT 9999 CLR 00/M10 A2964 RMK AO2 SLP023 T10051104 TSNO $

Laikas: 13:25 (16:25 UTC)

Prognozė

Ataskaita buvo paskelbta 7 valandos ir 25 minutes, ne 09:00 UTC
Prognozė galioja nuo 20 metu 09 UTC su 21 metu 15 UTC
Vėjas 9 kt iš Rytų/Pietryčių
Matomumas: 2011 m
Giedras dangus

TAF: BGTL 200900Z 2009/2115 11009KT 9999 SKC QNH2940INS TX02/2018Z TNM06/2009Z LIMITED METWATCH 2009 TIL 2011

Orai ataskaitas ir orų prognozės (METAR, TAF).

turimą stotys yra geltonos ir raudonos taškus žemėlapyje.

Perkelti pele per norėdami pamatyti stoties vardą.

Tada spustelėkite, norėdami matyti oro stebėjimo ir prognozės.

Norėdami pakeisti žemėlapį: spustelėkite ant žalios mygtukų su juodo kryžiaus žemyn,; žalią mygtuką su brūkšneliu, jei norite nutolinti; arba žalių rodyklių gretimoms žemėlapius.


METAR-TAF: